Observation data for Saint Lawrence on 02/14/2020      Previous  Date  Next       Current Mesonet Observations  Soil Data  Daily Summary Page  Observations in Plain Language
KST1 140600Z 09018KT 00/M9999 A3028 RMK A01 T0002199990  RH  001%=      5-min Rain = 0
KST1 140605Z 09017KT 00/M9999 A3029 RMK A01 T0002199990  RH  001%=      5-min Rain = 0
KST1 140610Z 09017KT 00/M9999 A3029 RMK A01 T0001199990  RH  001%=      5-min Rain = 0
KST1 140615Z 09017KT 00/M9999 A3029 RMK A01 T0001199990  RH  006%=      5-min Rain = 0
KST1 140620Z 10017KT 00/M9999 A3029 RMK A01 T0001199990  RH  003%=      5-min Rain = 0
KST1 140625Z 10017KT 00/M9999 A3029 RMK A01 T0001199990  RH  001%=      5-min Rain = 0
KST1 140630Z 10015KT 00/M9999 A3029 RMK A01 T0001199990  RH  001%=      5-min Rain = 0
KST1 140635Z 10015KT 00/M9999 A3029 RMK A01 T0001199990  RH  002%=      5-min Rain = 0
KST1 140640Z 10016G22KT 00/M9999 A3029 RMK A01 T0001199990  RH  001%=      5-min Rain = 0
KST1 140645Z 11019KT 00/9999 A3029 RMK A01 T00-00-99990  RH  001%=      5-min Rain = 0
KST1 140650Z 11018KT 00/9999 A3028 RMK A01 T00-00-99990  RH  001%=      5-min Rain = 0
KST1 140655Z 11018G23KT 00/9999 A3028 RMK A01 T00000-99990  RH  001%=      5-min Rain = 0
KST1 140700Z 11017KT 00/9999 A3029 RMK A01 T00000-99990  RH  001%=      5-min Rain = 0
KST1 140705Z 11016KT 00/M9999 A3028 RMK A01 T0001199990  RH  001%=      5-min Rain = 0
KST1 140710Z 11017KT 00/M9999 A3028 RMK A01 T0001199990  RH  001%=      5-min Rain = 0
KST1 140715Z 11016KT 00/M9999 A3028 RMK A01 T0001199990  RH  001%=      5-min Rain = 0
KST1 140720Z 11016KT 00/M9999 A3028 RMK A01 T0001199990  RH  001%=      5-min Rain = 0
KST1 140725Z 11015G20KT 00/M9999 A3028 RMK A01 T0001199990  RH  001%=      5-min Rain = 0
KST1 140730Z 11015KT 00/M9999 A3028 RMK A01 T0001199990  RH  001%=      5-min Rain = 0
KST1 140735Z 11014G19KT 00/M9999 A3028 RMK A01 T0001199990  RH  001%=      5-min Rain = 0
KST1 140740Z 10015KT 00/M9999 A3028 RMK A01 T0001199990  RH  001%=      5-min Rain = 0
KST1 140745Z 11015KT 00/M9999 A3028 RMK A01 T0001199990  RH  002%=      5-min Rain = 0
KST1 140750Z 11017KT 00/M9999 A3028 RMK A01 T0001199990  RH  001%=      5-min Rain = 0
KST1 140755Z 11018KT 00/9999 A3028 RMK A01 T00000-99990  RH  001%=      5-min Rain = 0
KST1 140800Z 11017KT 00/M9999 A3028 RMK A01 T0001199990  RH  001%=      5-min Rain = 0
KST1 140805Z 11016KT 00/M9999 A3028 RMK A01 T0001199990  RH  001%=      5-min Rain = 0
KST1 140810Z 11013G20KT 00/M9999 A3028 RMK A01 T0001199990  RH  001%=      5-min Rain = 0
KST1 140815Z 11017KT 00/9999 A3028 RMK A01 T00000-99990  RH  001%=      5-min Rain = 0
KST1 140820Z 12017KT 00/M9999 A3028 RMK A01 T0001199990  RH  001%=      5-min Rain = 0
KST1 140825Z 11015KT 00/M9999 A3028 RMK A01 T0002199990  RH  001%=      5-min Rain = 0
KST1 140830Z 11016KT 00/M9999 A3028 RMK A01 T0003199990  RH  001%=      5-min Rain = 0
KST1 140835Z 11014KT 00/M9999 A3028 RMK A01 T0003199990  RH  001%=      5-min Rain = 0
KST1 140840Z 11015G20KT 00/M9999 A3028 RMK A01 T0003199990  RH  001%=      5-min Rain = 0
KST1 140845Z 11014KT 00/M9999 A3028 RMK A01 T0004199990  RH  001%=      5-min Rain = 0
KST1 140850Z 11014KT 00/M9999 A3028 RMK A01 T0004199990  RH  001%=      5-min Rain = 0
KST1 140855Z 11015KT 00/M9999 A3028 RMK A01 T0004199990  RH  001%=      5-min Rain = 0
KST1 140900Z 11015KT 00/M9999 A3028 RMK A01 T0003199990  RH  001%=      5-min Rain = 0
KST1 140905Z 11015KT 00/M9999 A3028 RMK A01 T0003199990  RH  001%=      5-min Rain = 0
KST1 140910Z 12013G18KT 00/M9999 A3028 RMK A01 T0003199990  RH  001%=      5-min Rain = 0
KST1 140915Z 11012KT 00/M9999 A3028 RMK A01 T0003199990  RH  002%=      5-min Rain = 0
KST1 140920Z 11013KT 00/M9999 A3028 RMK A01 T0003199990  RH  001%=      5-min Rain = 0
KST1 140925Z 11013KT 00/M9999 A3028 RMK A01 T0003199990  RH  001%=      5-min Rain = 0
KST1 140930Z 12013KT 00/M9999 A3028 RMK A01 T0002199990  RH  001%=      5-min Rain = 0
KST1 140935Z 12014KT 00/M9999 A3028 RMK A01 T0001199990  RH  001%=      5-min Rain = 0
KST1 140940Z 11015KT 00/9999 A3028 RMK A01 T00000-99990  RH  001%=      5-min Rain = 0
KST1 140945Z 12014KT 00/9999 A3028 RMK A01 T00000-99990  RH  001%=      5-min Rain = 0
KST1 140950Z 12013KT 00/M9999 A3028 RMK A01 T0001199990  RH  001%=      5-min Rain = 0
KST1 140955Z 12013KT 00/M9999 A3028 RMK A01 T0001199990  RH  001%=      5-min Rain = 0
KST1 141000Z 12015KT 00/M9999 A3028 RMK A01 T0001199990  RH  001%=      5-min Rain = 0
KST1 141005Z 13014KT 00/M9999 A3028 RMK A01 T0001199990  RH  001%=      5-min Rain = 0
KST1 141010Z 13014KT 00/9999 A3028 RMK A01 T00000-99990  RH  001%=      5-min Rain = 0
KST1 141015Z 13013KT M00/M9999 A3028 RMK A01 T1001199990  RH  001%=      5-min Rain = 0
KST1 141020Z 12011KT M00/M9999 A3028 RMK A01 T1001199990  RH  001%=      5-min Rain = 0
KST1 141025Z 12011G16KT M00/M9999 A3028 RMK A01 T1003199990  RH  001%=      5-min Rain = 0
KST1 141030Z 12013KT M01/M9999 A3028 RMK A01 T1006199990  RH  001%=      5-min Rain = 0
KST1 141035Z 12012KT M01/M9999 A3028 RMK A01 T1008199990  RH  003%=      5-min Rain = 0
KST1 141040Z 12011KT M01/M9999 A3028 RMK A01 T1009199990  RH  002%=      5-min Rain = 0
KST1 141045Z 12010KT M01/M9999 A3028 RMK A01 T1010199990  RH  005%=      5-min Rain = 0
KST1 141050Z 12012KT M01/M9999 A3028 RMK A01 T1010199990  RH  002%=      5-min Rain = 0
KST1 141055Z 12012KT M01/M9999 A3028 RMK A01 T1010199990  RH  008%=      5-min Rain = 0
KST1 141100Z 12012KT M01/M9999 A3028 RMK A01 T1010199990  RH  012%=      5-min Rain = 0
KST1 141105Z 11011KT M01/M9999 A3028 RMK A01 T1010199990  RH  001%=      5-min Rain = 0
KST1 141110Z 11010KT M01/M9999 A3028 RMK A01 T1009199990  RH  001%=      5-min Rain = 0
KST1 141115Z 11011KT M01/M9999 A3028 RMK A01 T1009199990  RH  003%=      5-min Rain = 0
KST1 141120Z 12012KT M01/M9999 A3028 RMK A01 T1009199990  RH  002%=      5-min Rain = 0
KST1 141125Z 12012KT M01/M9999 A3029 RMK A01 T1010199990  RH  001%=      5-min Rain = 0
KST1 141130Z 11010KT M01/M9999 A3029 RMK A01 T1009199990  RH  004%=      5-min Rain = 0
KST1 141135Z 11011KT M01/M9999 A3028 RMK A01 T1009199990  RH  001%=      5-min Rain = 0
KST1 141140Z 11010KT M01/M9999 A3028 RMK A01 T1010199990  RH  001%=      5-min Rain = 0
KST1 141145Z 10010KT M01/M9999 A3028 RMK A01 T1010199990  RH  003%=      5-min Rain = 0
KST1 141150Z 11009KT M01/M9999 A3028 RMK A01 T1009199990  RH  005%=      5-min Rain = 0
KST1 141155Z 11010KT M01/M9999 A3028 RMK A01 T1010199990  RH  008%=      5-min Rain = 0
KST1 141200Z 11010KT M01/M9999 A3028 RMK A01 T1010199990  RH  010%=      5-min Rain = 0
KST1 141205Z 11009KT M01/M9999 A3029 RMK A01 T1009199990  RH  001%=      5-min Rain = 0
KST1 141210Z 11010KT M01/M9999 A3029 RMK A01 T1009199990  RH  001%=      5-min Rain = 0
KST1 141215Z 11009KT M01/M9999 A3029 RMK A01 T1008199990  RH  001%=      5-min Rain = 0
KST1 141220Z 11009KT M01/M9999 A3029 RMK A01 T1008199990  RH  001%=      5-min Rain = 0
KST1 141225Z 11010KT M01/M9999 A3029 RMK A01 T1008199990  RH  001%=      5-min Rain = 0
KST1 141230Z 12009KT M01/M9999 A303 RMK A01 T1007199990  RH  001%=      5-min Rain = 0
KST1 141235Z 11009KT M01/M9999 A303 RMK A01 T1007199990  RH  001%=      5-min Rain = 0
KST1 141240Z 11009KT M01/M9999 A303 RMK A01 T1006199990  RH  001%=      5-min Rain = 0
KST1 141245Z 11008KT M01/M9999 A3031 RMK A01 T1006199990  RH  001%=      5-min Rain = 0
KST1 141250Z 12009KT M01/M9999 A3031 RMK A01 T1005199990  RH  001%=      5-min Rain = 0
KST1 141255Z 12009KT M01/M9999 A3031 RMK A01 T1005199990  RH  001%=      5-min Rain = 0
KST1 141300Z 12009KT M00/M9999 A3031 RMK A01 T1004199990  RH  006%=      5-min Rain = 0
KST1 141305Z 11008KT M00/M9999 A3031 RMK A01 T1004199990  RH  006%=      5-min Rain = 0
KST1 141310Z 11008KT M00/M9999 A3031 RMK A01 T1003199990  RH  001%=      5-min Rain = 0
KST1 141315Z 12008KT M00/M9999 A3031 RMK A01 T1003199990  RH  003%=      5-min Rain = 0
KST1 141320Z 12008KT M00/M9999 A3031 RMK A01 T1003199990  RH  001%=      5-min Rain = 0
KST1 141325Z 12008KT M00/M9999 A3031 RMK A01 T1002199990  RH  001%=      5-min Rain = 0
KST1 141330Z 11007KT M00/M9999 A3032 RMK A01 T1002199990  RH  001%=      5-min Rain = 0
KST1 141335Z 11007KT M00/M9999 A3032 RMK A01 T1002199990  RH  001%=      5-min Rain = 0
KST1 141340Z 11006KT M00/M9999 A3032 RMK A01 T1001199990  RH  002%=      5-min Rain = 0
KST1 141345Z 11007KT M00/M9999 A3032 RMK A01 T1001199990  RH  004%=      5-min Rain = 0
KST1 141350Z 10008KT M00/M9999 A3032 RMK A01 T1001199990  RH  004%=      5-min Rain = 0
KST1 141355Z 11007KT M00/M9999 A3032 RMK A01 T1001199990  RH  001%=      5-min Rain = 0
KST1 141400Z 11007KT M00/M12 A3032 RMK A01 T10011121  RH  079%=      5-min Rain = 0
KST1 141405Z 11008KT M00/M00 A3032 RMK A01 T10011003  RH  100%=      5-min Rain = 0
KST1 141410Z 10008KT M00/M9999 A3032 RMK A01 T1001199990  RH  043%=      5-min Rain = 0
KST1 141415Z 11009KT M00/M9999 A3033 RMK A01 T1001199990  RH  001%=      5-min Rain = 0
KST1 141420Z 11008KT M00/M9999 A3033 RMK A01 T1001199990  RH  001%=      5-min Rain = 0
KST1 141425Z 11008KT 00/9999 A3033 RMK A01 T00000-99990  RH  001%=      5-min Rain = 0
KST1 141430Z 11008KT 00/9999 A3033 RMK A01 T00000-99990  RH  001%=      5-min Rain = 0
KST1 141435Z 11008KT 00/9999 A3033 RMK A01 T00-00-99990  RH  001%=      5-min Rain = 0
KST1 141440Z 10008KT M00/M9999 A3033 RMK A01 T1001199990  RH  001%=      5-min Rain = 0
KST1 141445Z 12009KT M00/M9999 A3033 RMK A01 T1001199990  RH  001%=      5-min Rain = 0
KST1 141450Z 12009KT M00/M9999 A3032 RMK A01 T1001199990  RH  001%=      5-min Rain = 0
KST1 141455Z 11009KT M00/M9999 A3032 RMK A01 T1001199990  RH  001%=      5-min Rain = 0
KST1 141500Z 11008KT 00/9999 A3032 RMK A01 T00-00-99990  RH  001%=      5-min Rain = 0
KST1 141505Z 13009KT 00/M9999 A3032 RMK A01 T0001199990  RH  001%=      5-min Rain = 0
KST1 141510Z 14010KT 00/9999 A3032 RMK A01 T00000-99990  RH  001%=      5-min Rain = 0
KST1 141515Z 14010KT 00/M9999 A3033 RMK A01 T0002199990  RH  001%=      5-min Rain = 0
KST1 141520Z 14011KT 00/M9999 A3033 RMK A01 T0003199990  RH  001%=      5-min Rain = 0
KST1 141525Z 15010KT 00/M9999 A3033 RMK A01 T0004199990  RH  001%=      5-min Rain = 0
KST1 141530Z 15011KT 01/M9999 A3034 RMK A01 T0005199990  RH  001%=      5-min Rain = 0
KST1 141535Z 15011KT 01/M9999 A3034 RMK A01 T0006199990  RH  001%=      5-min Rain = 0
KST1 141540Z 15011KT 01/M9999 A3034 RMK A01 T0007199990  RH  001%=      5-min Rain = 0
KST1 141545Z 15011KT 01/M9999 A3034 RMK A01 T0007199990  RH  001%=      5-min Rain = 0
KST1 141550Z 15011KT 01/M9999 A3034 RMK A01 T0008199990  RH  001%=      5-min Rain = 0
KST1 141555Z 15010KT 01/M9999 A3034 RMK A01 T0008199990  RH  001%=      5-min Rain = 0
KST1 141600Z 15010KT 01/M9999 A3034 RMK A01 T0008199990  RH  001%=      5-min Rain = 0
KST1 141605Z 16011KT 01/M9999 A3033 RMK A01 T0009199990  RH  001%=      5-min Rain = 0
KST1 141610Z 16010KT 01/M9999 A3033 RMK A01 T0011199990  RH  001%=      5-min Rain = 0
KST1 141615Z 15012KT 01/M9999 A3033 RMK A01 T0013199990  RH  003%=      5-min Rain = 0
KST1 141620Z 15011KT 01/M9999 A3033 RMK A01 T0012199990  RH  002%=      5-min Rain = 0
KST1 141625Z 15010KT 01/M9999 A3033 RMK A01 T0014199990  RH  001%=      5-min Rain = 0
KST1 141630Z 15010KT 01/M9999 A3033 RMK A01 T0014199990  RH  003%=      5-min Rain = 0
KST1 141635Z 15012KT 02/M9999 A3033 RMK A01 T0017199990  RH  001%=      5-min Rain = 0
KST1 141640Z 15011KT 02/M9999 A3033 RMK A01 T0018199990  RH  001%=      5-min Rain = 0
KST1 141645Z 16011KT 02/M9999 A3033 RMK A01 T0021199990  RH  001%=      5-min Rain = 0
KST1 141650Z 15012KT 02/M9999 A3033 RMK A01 T0021199990  RH  001%=      5-min Rain = 0
KST1 141655Z 16013KT 02/M9999 A3032 RMK A01 T0022199990  RH  001%=      5-min Rain = 0
KST1 141700Z 16012KT 02/M9999 A3032 RMK A01 T0023199990  RH  001%=      5-min Rain = 0
KST1 141705Z 16012KT 02/M9999 A3032 RMK A01 T0024199990  RH  001%=      5-min Rain = 0
KST1 141710Z 16012G17KT 03/M9999 A3032 RMK A01 T0026199990  RH  001%=      5-min Rain = 0
KST1 141715Z 16013KT 03/M9999 A3032 RMK A01 T0026199990  RH  001%=      5-min Rain = 0
KST1 141720Z 16013KT 03/M9999 A3031 RMK A01 T0028199990  RH  001%=      5-min Rain = 0
KST1 141725Z 15012KT 03/M9999 A3031 RMK A01 T0029199990  RH  001%=      5-min Rain = 0
KST1 141730Z 16012G17KT 03/M9999 A3031 RMK A01 T0030199990  RH  001%=      5-min Rain = 0
KST1 141735Z 16012KT 03/M9999 A3031 RMK A01 T0034199990  RH  001%=      5-min Rain = 0
KST1 141740Z 17013KT 04/M9999 A3031 RMK A01 T0037199990  RH  001%=      5-min Rain = 0
KST1 141745Z 16013KT 04/M9999 A3031 RMK A01 T0037199990  RH  001%=      5-min Rain = 0
KST1 141800Z 17013KT 04/00 A3003 RMK A01 T00370003  RH  079%=      5-min Rain = 0.01
KST1 141805Z 16015KT 04/00 A3031 RMK A01 T00380004  RH  080%=      5-min Rain = 0
KST1 141810Z 17013KT 04/01 A303 RMK A01 T00390006  RH  080%=      5-min Rain = 0
KST1 141815Z 17013KT 04/01 A303 RMK A01 T00400006  RH  080%=      5-min Rain = 0
KST1 141820Z 17013KT 04/01 A303 RMK A01 T00420008  RH  079%=      5-min Rain = 0
KST1 141825Z 17013KT 04/01 A303 RMK A01 T00430008  RH  079%=      5-min Rain = 0
KST1 141830Z 16011KT 04/01 A3029 RMK A01 T00430009  RH  079%=      5-min Rain = 0
KST1 141835Z 17011KT 05/01 A3029 RMK A01 T00460010  RH  078%=      5-min Rain = 0
KST1 141840Z 17011KT 05/01 A3029 RMK A01 T00500012  RH  077%=      5-min Rain = 0
KST1 141845Z 18012KT 05/01 A3029 RMK A01 T00530014  RH  077%=      5-min Rain = 0
KST1 141850Z 18012KT 06/01 A3029 RMK A01 T00550013  RH  075%=      5-min Rain = 0
KST1 141855Z 18011KT 06/01 A3029 RMK A01 T00550012  RH  075%=      5-min Rain = 0
KST1 141900Z 18012KT 06/02 A3028 RMK A01 T00590015  RH  074%=      5-min Rain = 0
KST1 141905Z 19011G16KT 06/01 A3028 RMK A01 T00590013  RH  073%=      5-min Rain = 0
KST1 141910Z 19013KT 06/02 A3028 RMK A01 T00610015  RH  073%=      5-min Rain = 0
KST1 141915Z 18013KT 06/02 A3027 RMK A01 T00610015  RH  073%=      5-min Rain = 0
KST1 141920Z 19011G16KT 06/01 A3027 RMK A01 T00630013  RH  071%=      5-min Rain = 0
KST1 141925Z 18013KT 07/02 A3027 RMK A01 T00670018  RH  072%=      5-min Rain = 0
KST1 141930Z 19012KT 07/02 A3026 RMK A01 T00670017  RH  071%=      5-min Rain = 0
KST1 141935Z 19012KT 07/02 A3026 RMK A01 T00700018  RH  070%=      5-min Rain = 0
KST1 141940Z 18014KT 07/02 A3026 RMK A01 T00710018  RH  070%=      5-min Rain = 0
KST1 141945Z 18012G18KT 08/02 A3026 RMK A01 T00750019  RH  069%=      5-min Rain = 0
KST1 141950Z 18012G18KT 08/02 A3025 RMK A01 T00780022  RH  069%=      5-min Rain = 0
KST1 141955Z 18012G18KT 08/02 A3025 RMK A01 T00790020  RH  067%=      5-min Rain = 0
KST1 142000Z 18013KT 08/02 A3025 RMK A01 T00820022  RH  067%=      5-min Rain = 0
KST1 142005Z 17013KT 09/02 A3024 RMK A01 T00860024  RH  066%=      5-min Rain = 0
KST1 142010Z 18011KT 09/02 A3024 RMK A01 T00860024  RH  066%=      5-min Rain = 0
KST1 142015Z 18011KT 09/02 A3023 RMK A01 T00880024  RH  065%=      5-min Rain = 0
KST1 142020Z 16010G16KT 09/02 A3023 RMK A01 T00900024  RH  064%=      5-min Rain = 0
KST1 142025Z 19011KT 09/02 A3023 RMK A01 T00920024  RH  063%=      5-min Rain = 0
KST1 142030Z 17011KT 09/03 A3022 RMK A01 T00940025  RH  063%=      5-min Rain = 0
KST1 142035Z 17013KT 10/03 A3022 RMK A01 T00980026  RH  062%=      5-min Rain = 0
KST1 142040Z 16012KT 10/03 A3021 RMK A01 T01000026  RH  061%=      5-min Rain = 0
KST1 142045Z 17016KT 10/03 A3021 RMK A01 T01040025  RH  059%=      5-min Rain = 0
KST1 142050Z 17013KT 11/02 A3021 RMK A01 T01050024  RH  058%=      5-min Rain = 0
KST1 142055Z 16013KT 11/03 A3021 RMK A01 T01080026  RH  058%=      5-min Rain = 0
KST1 142100Z 17013KT 11/02 A3021 RMK A01 T01080024  RH  057%=      5-min Rain = 0
KST1 142105Z 17015KT 11/03 A3021 RMK A01 T01100027  RH  057%=      5-min Rain = 0
KST1 142110Z 17014G19KT 11/03 A302 RMK A01 T01110026  RH  056%=      5-min Rain = 0
KST1 142115Z 16017G22KT 12/03 A302 RMK A01 T01150027  RH  055%=      5-min Rain = 0
KST1 142120Z 17013G18KT 11/03 A302 RMK A01 T01130028  RH  056%=      5-min Rain = 0
KST1 142125Z 17016KT 12/03 A302 RMK A01 T01150026  RH  055%=      5-min Rain = 0
KST1 142130Z 17016KT 11/03 A302 RMK A01 T01130025  RH  055%=      5-min Rain = 0
KST1 142135Z 16014KT 11/03 A3019 RMK A01 T01130027  RH  056%=      5-min Rain = 0
KST1 142140Z 15013KT 12/03 A3019 RMK A01 T01150028  RH  056%=      5-min Rain = 0
KST1 142145Z 15014KT 12/03 A3019 RMK A01 T01150029  RH  056%=      5-min Rain = 0
KST1 142150Z 16014KT 11/03 A3019 RMK A01 T01140027  RH  056%=      5-min Rain = 0
KST1 142155Z 17015KT 12/03 A3019 RMK A01 T01150027  RH  055%=      5-min Rain = 0
KST1 142200Z 17015G20KT 11/03 A3019 RMK A01 T01140027  RH  055%=      5-min Rain = 0
KST1 142205Z 15014G19KT 12/03 A3019 RMK A01 T01150028  RH  056%=      5-min Rain = 0
KST1 142210Z 15015KT 12/03 A3019 RMK A01 T01170027  RH  055%=      5-min Rain = 0
KST1 142215Z 15014KT 12/03 A3019 RMK A01 T01150026  RH  055%=      5-min Rain = 0
KST1 142220Z 16014KT 12/03 A3019 RMK A01 T01170029  RH  055%=      5-min Rain = 0
KST1 142225Z 15015KT 12/03 A3019 RMK A01 T01170028  RH  055%=      5-min Rain = 0
KST1 142230Z 16016KT 12/03 A3018 RMK A01 T01180028  RH  055%=      5-min Rain = 0
KST1 142235Z 16016KT 12/03 A3018 RMK A01 T01170026  RH  055%=      5-min Rain = 0
KST1 142240Z 17016KT 12/03 A3018 RMK A01 T01170029  RH  055%=      5-min Rain = 0
KST1 142245Z 16015KT 12/03 A3018 RMK A01 T01180029  RH  055%=      5-min Rain = 0
KST1 142250Z 16014G19KT 12/03 A3018 RMK A01 T01190029  RH  055%=      5-min Rain = 0
KST1 142255Z 17017KT 12/03 A3018 RMK A01 T01170027  RH  055%=      5-min Rain = 0
KST1 142300Z 16016KT 12/03 A3018 RMK A01 T01180028  RH  055%=      5-min Rain = 0
KST1 142305Z 15014KT 12/03 A3017 RMK A01 T01180028  RH  055%=      5-min Rain = 0
KST1 142310Z 16014KT 12/03 A3017 RMK A01 T01200030  RH  055%=      5-min Rain = 0
KST1 142315Z 16016KT 12/03 A3017 RMK A01 T01180028  RH  054%=      5-min Rain = 0
KST1 142320Z 16016KT 12/03 A3017 RMK A01 T01170027  RH  054%=      5-min Rain = 0
KST1 142325Z 16016KT 12/03 A3017 RMK A01 T01170026  RH  054%=      5-min Rain = 0
KST1 142330Z 15014KT 12/03 A3017 RMK A01 T01180027  RH  054%=      5-min Rain = 0
KST1 142335Z 15015KT 12/03 A3017 RMK A01 T01180027  RH  054%=      5-min Rain = 0
KST1 142340Z 16015KT 12/03 A3017 RMK A01 T01180027  RH  054%=      5-min Rain = 0
KST1 142345Z 16014KT 12/03 A3017 RMK A01 T01170027  RH  055%=      5-min Rain = 0
KST1 142350Z 16014KT 12/03 A3017 RMK A01 T01160027  RH  055%=      5-min Rain = 0
KST1 142355Z 16015KT 12/03 A3016 RMK A01 T01150025  RH  054%=      5-min Rain = 0
KST1 150000Z 16014KT 11/03 A3016 RMK A01 T01140026  RH  055%=      5-min Rain = 0
KST1 150005Z 15013KT 11/03 A3016 RMK A01 T01130027  RH  056%=      5-min Rain = 0
KST1 150010Z 15014KT 11/03 A3016 RMK A01 T01110026  RH  056%=      5-min Rain = 0
KST1 150015Z 15013G18KT 11/03 A3016 RMK A01 T01100027  RH  057%=      5-min Rain = 0
KST1 150020Z 15012KT 11/03 A3016 RMK A01 T01080028  RH  058%=      5-min Rain = 0
KST1 150025Z 15011KT 11/03 A3016 RMK A01 T01050029  RH  060%=      5-min Rain = 0
KST1 150030Z 15012KT 10/03 A3016 RMK A01 T01030029  RH  061%=      5-min Rain = 0
KST1 150035Z 15014KT 10/03 A3016 RMK A01 T01010028  RH  061%=      5-min Rain = 0
KST1 150040Z 15014KT 10/03 A3016 RMK A01 T01000028  RH  061%=      5-min Rain = 0
KST1 150045Z 15014KT 10/03 A3016 RMK A01 T01000027  RH  061%=      5-min Rain = 0
KST1 150050Z 15012KT 10/03 A3016 RMK A01 T00960028  RH  063%=      5-min Rain = 0
KST1 150055Z 15011KT 09/03 A3017 RMK A01 T00930029  RH  065%=      5-min Rain = 0
KST1 150100Z 15013KT 09/03 A3017 RMK A01 T00930028  RH  065%=      5-min Rain = 0
KST1 150105Z 15012KT 09/03 A3017 RMK A01 T00920028  RH  065%=      5-min Rain = 0
KST1 150110Z 15012KT 09/03 A3017 RMK A01 T00910029  RH  066%=      5-min Rain = 0
KST1 150115Z 15012KT 09/03 A3017 RMK A01 T00900028  RH  066%=      5-min Rain = 0
KST1 150120Z 15012KT 09/03 A3017 RMK A01 T00880028  RH  067%=      5-min Rain = 0
KST1 150125Z 15011KT 09/03 A3018 RMK A01 T00850028  RH  068%=      5-min Rain = 0
KST1 150130Z 15010KT 08/03 A3018 RMK A01 T00830028  RH  069%=      5-min Rain = 0
KST1 150135Z 15011KT 08/03 A3018 RMK A01 T00830028  RH  069%=      5-min Rain = 0
KST1 150140Z 15012KT 09/03 A3019 RMK A01 T00860028  RH  068%=      5-min Rain = 0
KST1 150145Z 15012KT 08/03 A3019 RMK A01 T00830028  RH  069%=      5-min Rain = 0
KST1 150150Z 15011KT 08/03 A3019 RMK A01 T00810028  RH  070%=      5-min Rain = 0
KST1 150155Z 15010KT 08/03 A3019 RMK A01 T00790027  RH  071%=      5-min Rain = 0
KST1 150200Z 15011KT 08/03 A3019 RMK A01 T00790027  RH  071%=      5-min Rain = 0
KST1 150205Z 15011KT 08/03 A3019 RMK A01 T00790027  RH  071%=      5-min Rain = 0
KST1 150210Z 15011KT 08/03 A3019 RMK A01 T00760027  RH  072%=      5-min Rain = 0
KST1 150215Z 16011KT 08/03 A3019 RMK A01 T00750027  RH  073%=      5-min Rain = 0
KST1 150220Z 16012KT 07/03 A3019 RMK A01 T00740027  RH  073%=      5-min Rain = 0
KST1 150225Z 16012KT 07/03 A3019 RMK A01 T00740027  RH  073%=      5-min Rain = 0
KST1 150230Z 15012KT 07/03 A3019 RMK A01 T00720026  RH  074%=      5-min Rain = 0
KST1 150235Z 16012KT 07/03 A3019 RMK A01 T00700026  RH  075%=      5-min Rain = 0
KST1 150240Z 15011KT 07/03 A3019 RMK A01 T00690026  RH  075%=      5-min Rain = 0
KST1 150245Z 15011KT 07/03 A3019 RMK A01 T00700025  RH  074%=      5-min Rain = 0
KST1 150250Z 15010KT 07/02 A3019 RMK A01 T00690024  RH  074%=      5-min Rain = 0
KST1 150255Z 15010KT 07/02 A3019 RMK A01 T00680024  RH  074%=      5-min Rain = 0
KST1 150300Z 15009KT 07/02 A3019 RMK A01 T00670024  RH  075%=      5-min Rain = 0
KST1 150305Z 16010KT 07/02 A302 RMK A01 T00670024  RH  075%=      5-min Rain = 0
KST1 150310Z 16010KT 07/02 A3019 RMK A01 T00670024  RH  075%=      5-min Rain = 0
KST1 150315Z 16011KT 07/02 A3019 RMK A01 T00660024  RH  075%=      5-min Rain = 0
KST1 150320Z 16011KT 07/02 A3019 RMK A01 T00660023  RH  075%=      5-min Rain = 0
KST1 150325Z 16011KT 07/02 A3019 RMK A01 T00660023  RH  075%=      5-min Rain = 0
KST1 150330Z 16010KT 06/02 A3019 RMK A01 T00640023  RH  076%=      5-min Rain = 0
KST1 150335Z 16011KT 06/02 A3019 RMK A01 T00640023  RH  076%=      5-min Rain = 0
KST1 150340Z 16011KT 06/02 A3019 RMK A01 T00640023  RH  076%=      5-min Rain = 0
KST1 150345Z 16011KT 06/02 A3019 RMK A01 T00640022  RH  076%=      5-min Rain = 0
KST1 150350Z 15011KT 06/02 A3019 RMK A01 T00630023  RH  076%=      5-min Rain = 0
KST1 150355Z 16010KT 06/02 A3019 RMK A01 T00620022  RH  077%=      5-min Rain = 0
KST1 150400Z 16010KT 06/02 A3019 RMK A01 T00610022  RH  077%=      5-min Rain = 0
KST1 150405Z 16011KT 06/02 A3019 RMK A01 T00620022  RH  076%=      5-min Rain = 0
KST1 150410Z 15010KT 06/02 A3019 RMK A01 T00600021  RH  077%=      5-min Rain = 0
KST1 150415Z 16011KT 06/02 A3019 RMK A01 T00600021  RH  077%=      5-min Rain = 0
KST1 150420Z 16011KT 06/02 A3019 RMK A01 T00610021  RH  076%=      5-min Rain = 0
KST1 150425Z 16011KT 06/02 A3019 RMK A01 T00610021  RH  077%=      5-min Rain = 0
KST1 150430Z 16011KT 06/02 A3019 RMK A01 T00580020  RH  078%=      5-min Rain = 0
KST1 150435Z 16011KT 06/02 A3019 RMK A01 T00550020  RH  079%=      5-min Rain = 0
KST1 150440Z 16012KT 06/02 A3019 RMK A01 T00550019  RH  079%=      5-min Rain = 0
KST1 150445Z 16011KT 06/02 A3018 RMK A01 T00560019  RH  078%=      5-min Rain = 0
KST1 150450Z 16011KT 06/02 A3019 RMK A01 T00570018  RH  077%=      5-min Rain = 0
KST1 150455Z 16012KT 06/02 A3018 RMK A01 T00590019  RH  076%=      5-min Rain = 0
KST1 150500Z 16012KT 06/02 A3018 RMK A01 T00580018  RH  076%=      5-min Rain = 0
KST1 150505Z 16014KT 06/02 A3018 RMK A01 T00570017  RH  077%=      5-min Rain = 0
KST1 150510Z 16014KT 06/02 A3018 RMK A01 T00570017  RH  076%=      5-min Rain = 0
KST1 150515Z 16015KT 06/02 A3017 RMK A01 T00580017  RH  076%=      5-min Rain = 0
KST1 150520Z 16015KT 06/02 A3017 RMK A01 T00580016  RH  075%=      5-min Rain = 0
KST1 150525Z 16016KT 06/02 A3016 RMK A01 T00580016  RH  075%=      5-min Rain = 0
KST1 150530Z 16016KT 06/02 A3016 RMK A01 T00580016  RH  075%=      5-min Rain = 0
KST1 150535Z 16016KT 06/02 A3016 RMK A01 T00570015  RH  075%=      5-min Rain = 0
KST1 150540Z 16015KT 06/02 A3016 RMK A01 T00570015  RH  075%=      5-min Rain = 0
KST1 150545Z 16015KT 06/02 A3016 RMK A01 T00570015  RH  075%=      5-min Rain = 0
KST1 150550Z 16015KT 06/02 A3016 RMK A01 T00550015  RH  076%=      5-min Rain = 0
KST1 150555Z 17014G19KT 06/02 A3016 RMK A01 T00550015  RH  076%=      5-min Rain = 0

Page generated in 0.0257 seconds.